createdAt,value
2016-12-20T04:02:03.566Z,0
2016-12-20T04:02:34.226Z,0
2016-12-20T04:03:04.855Z,0
2016-12-20T04:03:35.400Z,0
2016-12-20T04:04:05.944Z,0
2016-12-20T04:04:36.558Z,0
2016-12-20T04:05:07.112Z,0
2016-12-20T04:05:37.776Z,0
2016-12-20T04:06:08.358Z,0
2016-12-20T04:06:38.928Z,0
2016-12-20T04:07:09.506Z,0
2016-12-20T04:07:40.082Z,0
2016-12-20T04:08:10.639Z,0
2016-12-20T04:08:41.415Z,0
2016-12-20T04:09:11.993Z,0
2016-12-20T04:09:42.568Z,0
2016-12-20T04:10:13.130Z,0
2016-12-20T04:10:43.701Z,0
2016-12-20T04:11:14.309Z,0
2016-12-20T04:11:44.898Z,0
2016-12-20T04:12:15.456Z,0
2016-12-20T04:12:46.026Z,0
2016-12-20T04:13:16.602Z,0
2016-12-20T04:13:47.168Z,0
2016-12-20T04:14:17.752Z,0
2016-12-20T04:14:48.309Z,0
2016-12-20T04:15:18.861Z,0
2016-12-20T04:15:49.445Z,0
2016-12-20T04:16:20.011Z,0
2016-12-20T04:16:50.658Z,0
2016-12-20T04:17:21.288Z,0
2016-12-20T04:17:51.874Z,0
2016-12-20T04:18:22.431Z,0
2016-12-20T04:18:53.004Z,0
2016-12-20T04:19:23.568Z,0
2016-12-20T04:19:54.160Z,0
2016-12-20T04:20:24.722Z,0
2016-12-20T04:20:55.318Z,0
2016-12-20T04:21:25.896Z,0
2016-12-20T04:21:56.457Z,0
2016-12-20T04:22:27.025Z,0
2016-12-20T04:22:57.628Z,0
2016-12-20T04:23:28.184Z,0
2016-12-20T04:23:58.732Z,0
2016-12-20T04:24:29.363Z,0
2016-12-20T04:24:59.928Z,0
2016-12-20T04:25:30.538Z,0
2016-12-20T04:26:01.109Z,0
2016-12-20T04:26:31.690Z,0
2016-12-20T04:27:02.281Z,0
2016-12-20T04:27:32.870Z,0
2016-12-20T04:28:03.426Z,0
2016-12-20T04:28:33.994Z,0
2016-12-20T04:29:04.557Z,0
2016-12-20T04:30:41.853Z,0
2016-12-20T04:31:12.424Z,0
2016-12-20T04:31:43.006Z,0
2016-12-20T04:32:13.577Z,0
2016-12-20T04:32:44.147Z,0
2016-12-20T04:33:14.715Z,0
2016-12-20T04:33:45.269Z,0
2016-12-20T04:34:15.870Z,0
2016-12-20T04:34:46.434Z,0
2016-12-20T04:35:17.025Z,0
2016-12-20T04:35:47.642Z,0
2016-12-20T04:36:18.328Z,0
2016-12-20T04:36:48.942Z,0
2016-12-20T04:37:19.585Z,0
2016-12-20T04:37:50.125Z,0
2016-12-20T04:38:20.735Z,0
2016-12-20T04:38:51.453Z,0
2016-12-20T04:39:21.993Z,0
2016-12-20T04:39:52.571Z,0
2016-12-20T04:40:23.833Z,0
2016-12-20T04:40:54.513Z,0
2016-12-20T04:41:25.086Z,0
2016-12-20T04:41:55.758Z,0
2016-12-20T04:42:26.367Z,0
2016-12-20T04:42:56.941Z,0
2016-12-20T04:43:27.509Z,0
2016-12-20T04:43:58.099Z,0
2016-12-20T04:44:28.680Z,0
2016-12-20T04:44:59.285Z,0
2016-12-20T04:45:29.843Z,0
2016-12-20T04:46:00.416Z,0
2016-12-20T04:46:30.977Z,0
2016-12-20T04:47:01.546Z,0
2016-12-20T04:47:32.317Z,0
2016-12-20T04:48:02.859Z,0
2016-12-20T04:48:33.433Z,0
2016-12-20T04:49:04.016Z,0
2016-12-20T04:49:34.578Z,0
2016-12-20T04:50:05.158Z,0
2016-12-20T04:50:35.706Z,0
2016-12-20T04:51:06.279Z,0
2016-12-20T04:51:36.843Z,0
2016-12-20T04:52:07.427Z,0
2016-12-20T04:52:37.995Z,0
2016-12-20T04:53:08.579Z,0
2016-12-20T04:53:39.159Z,0
2016-12-20T04:54:09.726Z,0
2016-12-20T04:54:40.305Z,0
2016-12-20T04:55:10.888Z,0
2016-12-20T04:55:41.470Z,0
2016-12-20T04:56:12.035Z,0
2016-12-20T04:56:42.608Z,0
2016-12-20T04:57:13.195Z,0
2016-12-20T04:57:43.813Z,0
2016-12-20T04:58:14.379Z,0
2016-12-20T04:58:45.040Z,0
2016-12-20T04:59:15.592Z,0
2016-12-20T04:59:46.168Z,0
2016-12-20T05:00:16.726Z,0
2016-12-20T05:00:47.278Z,0
2016-12-20T05:01:17.854Z,0
2016-12-20T05:01:48.435Z,0
2016-12-20T05:02:19.001Z,0
2016-12-20T05:02:49.574Z,0
2016-12-20T05:03:20.137Z,0
2016-12-20T05:03:50.693Z,0
2016-12-20T05:04:21.270Z,0
2016-12-20T05:04:51.842Z,0
2016-12-20T05:05:22.430Z,0
2016-12-20T05:05:52.988Z,0
2016-12-20T05:06:23.589Z,4
2016-12-20T05:06:54.190Z,4
2016-12-20T05:07:24.768Z,4
2016-12-20T05:07:55.398Z,4
2016-12-20T05:08:25.971Z,4
2016-12-20T05:08:56.547Z,4
2016-12-20T05:09:27.113Z,4
2016-12-20T05:09:57.690Z,4
2016-12-20T05:10:28.265Z,4
2016-12-20T05:10:58.878Z,4
2016-12-20T05:11:29.453Z,4
2016-12-20T05:12:00.114Z,4
2016-12-20T05:12:30.853Z,4
2016-12-20T05:13:01.560Z,4
2016-12-20T05:13:32.138Z,4
2016-12-20T05:14:02.744Z,4
2016-12-20T05:14:33.424Z,4
2016-12-20T05:15:04.032Z,4
2016-12-20T05:15:34.594Z,4
2016-12-20T05:16:05.159Z,4
2016-12-20T05:16:35.689Z,4
2016-12-20T05:17:06.303Z,4
2016-12-20T05:17:36.905Z,4
2016-12-20T05:18:07.479Z,4
2016-12-20T05:18:38.091Z,4
2016-12-20T05:19:08.708Z,4
2016-12-20T05:19:39.343Z,4
2016-12-20T05:20:10.003Z,4
2016-12-20T05:20:40.603Z,4
2016-12-20T05:21:11.233Z,4
2016-12-20T05:21:41.806Z,4
2016-12-20T05:22:12.672Z,4
2016-12-20T05:22:43.328Z,4
2016-12-20T05:23:13.874Z,4
2016-12-20T05:23:44.508Z,4
2016-12-20T06:00:50.356Z,0
2016-12-20T06:01:20.918Z,0
2016-12-20T06:03:33.369Z,0
2016-12-20T06:04:03.939Z,0
2016-12-20T06:04:34.523Z,0
2016-12-20T06:05:05.089Z,0
2016-12-20T06:05:35.645Z,0
2016-12-20T06:06:06.191Z,0
2016-12-20T06:06:36.731Z,0
2016-12-20T06:07:07.412Z,0
2016-12-20T06:07:37.984Z,0
2016-12-20T06:08:08.550Z,0
2016-12-20T06:08:39.168Z,0
2016-12-20T06:09:09.731Z,0
2016-12-20T06:09:40.294Z,0
2016-12-20T06:10:10.881Z,0
2016-12-20T06:10:41.462Z,0
2016-12-20T06:11:12.009Z,4
2016-12-20T06:11:42.558Z,0
2016-12-20T06:12:13.150Z,0
2016-12-20T06:12:43.806Z,0
2016-12-20T06:13:50.417Z,0
2016-12-20T06:14:20.983Z,0
2016-12-20T06:14:51.559Z,4
2016-12-20T06:15:22.128Z,0
2016-12-20T06:15:52.742Z,0
2016-12-20T06:16:23.349Z,0
2016-12-20T06:16:53.895Z,0
2016-12-20T06:17:24.486Z,0
2016-12-20T06:17:55.096Z,0
2016-12-20T06:18:25.683Z,0
2016-12-20T06:18:56.264Z,0
2016-12-20T06:19:26.889Z,0
2016-12-20T06:19:57.435Z,0
2016-12-20T06:20:28.037Z,0
2016-12-20T06:20:58.595Z,0
2016-12-20T06:21:29.154Z,0
2016-12-20T06:21:59.726Z,0
2016-12-20T06:22:30.298Z,0
2016-12-20T06:23:00.856Z,0
2016-12-20T06:23:31.461Z,0
2016-12-20T06:24:02.006Z,0
2016-12-20T06:24:32.605Z,0
2016-12-20T06:25:03.223Z,0
2016-12-20T06:25:33.842Z,0
2016-12-20T06:26:04.419Z,0
2016-12-20T06:26:34.998Z,0
2016-12-20T06:27:05.552Z,0
2016-12-20T06:27:36.135Z,0
2016-12-20T06:28:06.697Z,0
2016-12-20T06:28:37.254Z,0
2016-12-20T06:29:07.878Z,0
2016-12-20T06:29:38.440Z,0
2016-12-20T06:30:09.014Z,0
2016-12-20T06:30:40.361Z,0
2016-12-20T06:31:10.945Z,0
2016-12-20T06:31:41.549Z,0
2016-12-20T06:32:12.128Z,0
2016-12-20T06:32:42.707Z,0
2016-12-20T06:33:13.246Z,0
2016-12-20T06:33:43.853Z,0
2016-12-20T06:34:14.459Z,0
2016-12-20T06:34:45.015Z,0
2016-12-20T06:35:15.574Z,0
2016-12-20T06:35:46.130Z,0
2016-12-20T06:36:16.714Z,0
2016-12-20T06:36:47.266Z,0
2016-12-20T06:37:17.878Z,0
2016-12-20T06:47:23.777Z,52
2016-12-20T06:47:54.312Z,52
2016-12-20T06:48:24.869Z,52
2016-12-20T06:48:55.424Z,52
2016-12-20T06:49:25.957Z,52
2016-12-20T06:49:56.560Z,56
2016-12-20T06:50:27.104Z,56
2016-12-20T06:50:57.731Z,52
2016-12-20T06:52:34.867Z,52
2016-12-20T06:53:05.478Z,52
2016-12-20T06:53:36.030Z,52
2016-12-20T06:54:06.688Z,56
2016-12-20T06:54:37.370Z,56
2016-12-20T06:55:07.894Z,52
2016-12-20T06:55:38.517Z,52
2016-12-20T06:56:09.053Z,52
2016-12-20T06:56:39.605Z,52
2016-12-20T06:57:10.161Z,52
2016-12-20T06:59:09.380Z,52
2016-12-20T06:59:39.957Z,52
2016-12-20T07:01:37.548Z,4
2016-12-20T07:02:08.091Z,4
2016-12-20T07:03:15.143Z,4
2016-12-20T07:03:45.629Z,8
2016-12-20T07:04:16.285Z,8
2016-12-20T07:04:46.808Z,8
2016-12-20T07:05:17.402Z,4
2016-12-20T07:05:47.920Z,4
2016-12-20T07:06:18.429Z,4
2016-12-20T07:06:49.069Z,4
2016-12-20T07:07:19.750Z,8
2016-12-20T07:07:50.272Z,8
2016-12-20T07:08:20.778Z,4
2016-12-20T07:08:51.300Z,4
2016-12-20T07:09:21.778Z,4
2016-12-20T07:09:52.321Z,4
2016-12-20T07:10:22.827Z,8
2016-12-20T07:10:53.371Z,8
2016-12-20T07:11:23.883Z,8
2016-12-20T07:11:54.374Z,4
2016-12-20T07:12:24.880Z,4
2016-12-20T07:12:55.376Z,4
2016-12-20T07:13:25.890Z,4
2016-12-20T07:13:56.388Z,4
2016-12-20T07:14:26.896Z,4
2016-12-20T07:15:33.888Z,4
2016-12-20T07:16:04.406Z,4
2016-12-20T07:16:34.932Z,4
2016-12-20T07:17:05.515Z,4
2016-12-20T07:17:36.111Z,4
2016-12-20T07:18:06.629Z,4
2016-12-20T07:18:37.194Z,4
2016-12-20T07:19:07.686Z,4
2016-12-20T07:19:38.198Z,4
2016-12-20T07:20:08.805Z,4
2016-12-20T07:20:39.341Z,4
2016-12-20T07:21:09.826Z,4
2016-12-20T07:21:40.354Z,4
2016-12-20T07:22:10.852Z,4
2016-12-20T07:22:41.480Z,4
2016-12-20T07:23:11.998Z,4
2016-12-20T07:23:42.621Z,4
2016-12-20T07:24:13.139Z,4
2016-12-20T07:24:43.671Z,4
2016-12-20T07:25:14.300Z,4
2016-12-20T07:25:44.803Z,4
2016-12-20T07:26:15.342Z,4
2016-12-20T07:26:45.845Z,4
2016-12-20T07:27:16.359Z,4
2016-12-20T07:27:46.870Z,4
2016-12-20T07:28:17.471Z,4
2016-12-20T07:28:48.071Z,4
2016-12-20T07:29:18.583Z,4
2016-12-20T07:29:49.112Z,4
2016-12-20T07:30:19.656Z,4
2016-12-20T07:30:50.175Z,4
2016-12-20T07:31:20.669Z,4
2016-12-20T07:31:51.207Z,4
2016-12-20T07:32:21.725Z,4
2016-12-20T07:32:52.260Z,4
2016-12-20T07:33:22.765Z,4
2016-12-20T07:33:53.281Z,4
2016-12-20T07:34:23.790Z,4
2016-12-20T07:34:54.307Z,4
2016-12-20T07:35:24.804Z,4
2016-12-20T07:35:55.330Z,4
2016-12-20T07:36:25.849Z,4
2016-12-20T07:36:56.501Z,4
2016-12-20T07:37:27.026Z,4
2016-12-20T07:37:57.548Z,4
2016-12-20T07:38:28.060Z,4
2016-12-20T07:38:58.567Z,4
2016-12-20T07:39:29.079Z,4
2016-12-20T07:39:59.577Z,4
2016-12-20T07:40:30.087Z,4
2016-12-20T07:41:00.595Z,4
2016-12-20T07:41:31.104Z,4
2016-12-20T07:42:01.601Z,8
2016-12-20T07:42:32.231Z,8
2016-12-20T07:43:02.748Z,8
2016-12-20T07:43:33.252Z,8
2016-12-20T07:44:03.918Z,8
2016-12-20T07:44:34.424Z,8
2016-12-20T07:45:04.952Z,8
2016-12-20T07:45:35.469Z,8
2016-12-20T07:46:05.995Z,8
2016-12-20T07:46:36.498Z,8
2016-12-20T07:47:07.002Z,8
2016-12-20T07:47:37.520Z,8
2016-12-20T07:48:08.052Z,8
2016-12-20T07:48:38.581Z,8
2016-12-20T07:49:09.307Z,8
2016-12-20T07:49:39.812Z,8
2016-12-20T07:50:10.319Z,8
2016-12-20T07:50:40.830Z,8
2016-12-20T07:51:11.344Z,8
2016-12-20T07:51:41.860Z,4
2016-12-20T07:52:12.471Z,8
2016-12-20T07:52:42.988Z,8
2016-12-20T07:53:13.506Z,8
2016-12-20T07:53:44.166Z,4
2016-12-20T07:54:14.695Z,4
2016-12-20T07:54:45.280Z,4
2016-12-20T07:55:15.837Z,8
2016-12-20T07:55:46.377Z,4
2016-12-20T07:56:16.923Z,4
2016-12-20T07:56:47.451Z,4
2016-12-20T07:57:17.939Z,4
2016-12-20T07:57:48.474Z,4
2016-12-20T07:58:18.969Z,4
2016-12-20T07:58:49.517Z,4
2016-12-20T07:59:20.041Z,4
2016-12-20T07:59:50.573Z,4
2016-12-20T08:00:21.131Z,4
2016-12-20T08:00:51.642Z,4
2016-12-20T08:01:22.149Z,4
2016-12-20T08:01:52.690Z,8
2016-12-20T08:02:23.293Z,8
2016-12-20T08:02:53.783Z,8
2016-12-20T08:03:24.300Z,8
2016-12-20T08:03:54.809Z,8
2016-12-20T08:04:25.318Z,8
2016-12-20T08:04:55.914Z,8
2016-12-20T08:05:26.423Z,8
2016-12-20T08:05:56.955Z,8
2016-12-20T08:06:27.430Z,8
2016-12-20T08:06:58.087Z,8
2016-12-20T08:07:28.611Z,8
2016-12-20T08:07:59.119Z,8
2016-12-20T08:08:29.695Z,8
2016-12-20T08:09:00.211Z,8
2016-12-20T08:09:30.767Z,8
2016-12-20T08:10:01.280Z,8
2016-12-20T08:10:31.805Z,8
2016-12-20T08:11:02.297Z,8
2016-12-20T08:11:32.813Z,4
2016-12-20T08:12:03.444Z,4
2016-12-20T08:12:33.942Z,8
2016-12-20T08:13:04.601Z,8
2016-12-20T08:13:35.154Z,4
2016-12-20T08:14:05.695Z,4
2016-12-20T08:14:36.396Z,8
2016-12-20T08:15:06.915Z,8
2016-12-20T08:15:37.454Z,8
2016-12-20T08:16:08.114Z,8
2016-12-20T08:16:38.649Z,8
2016-12-20T08:17:09.195Z,8
2016-12-20T08:17:39.733Z,8
2016-12-20T08:18:10.266Z,8
2016-12-20T08:18:40.778Z,8
2016-12-20T08:19:11.297Z,8
2016-12-20T08:19:41.837Z,8
2016-12-20T08:20:12.347Z,8
2016-12-20T08:20:42.879Z,8
2016-12-20T08:21:13.420Z,8
2016-12-20T08:21:43.913Z,8
2016-12-20T08:22:14.447Z,8
2016-12-20T08:22:44.946Z,8
2016-12-20T08:23:15.553Z,8
2016-12-20T08:23:46.066Z,8
2016-12-20T08:24:16.632Z,8
2016-12-20T08:24:47.130Z,8
2016-12-20T08:25:17.637Z,8
2016-12-20T08:25:48.151Z,8
2016-12-20T08:26:18.647Z,8
2016-12-20T08:26:49.161Z,8
2016-12-20T08:27:19.674Z,8
2016-12-20T08:27:50.355Z,8
2016-12-20T08:28:20.871Z,8
2016-12-20T08:28:51.427Z,8
2016-12-20T08:29:21.964Z,8
2016-12-20T08:29:52.474Z,8
2016-12-20T08:30:22.993Z,8
2016-12-20T08:30:53.492Z,8
2016-12-20T08:31:23.988Z,12
2016-12-20T08:31:54.507Z,12
2016-12-20T08:32:25.033Z,8
2016-12-20T08:32:55.627Z,8
2016-12-20T08:33:26.136Z,8
2016-12-20T08:33:56.634Z,8
2016-12-20T08:34:27.142Z,8
2016-12-20T08:34:57.643Z,12
2016-12-20T08:35:28.151Z,12
2016-12-20T08:35:58.755Z,8
2016-12-20T08:36:29.486Z,8
2016-12-20T08:37:00.011Z,8
2016-12-20T08:37:30.509Z,8
2016-12-20T08:38:01.040Z,8
2016-12-20T08:38:31.653Z,8
2016-12-20T08:39:02.221Z,8
2016-12-20T08:39:32.732Z,8
2016-12-20T08:40:03.224Z,8
2016-12-20T08:40:33.742Z,8
2016-12-20T08:42:47.793Z,12
2016-12-20T08:43:18.303Z,12
2016-12-20T08:43:48.808Z,12
2016-12-20T08:44:19.340Z,12
2016-12-20T08:44:49.836Z,12
2016-12-20T08:45:20.330Z,12
2016-12-20T08:45:50.829Z,12
2016-12-20T08:46:21.419Z,8
2016-12-20T08:46:51.932Z,12
2016-12-20T08:47:22.484Z,12
2016-12-20T08:47:52.990Z,12
2016-12-20T08:48:23.505Z,12
2016-12-20T08:48:54.156Z,12
2016-12-20T08:49:24.719Z,12
2016-12-20T08:49:55.290Z,12
2016-12-20T08:50:25.814Z,12
2016-12-20T08:50:56.350Z,12
2016-12-20T08:51:26.838Z,12
2016-12-20T08:51:57.340Z,12
2016-12-20T08:52:27.950Z,12
2016-12-20T08:52:58.473Z,12
2016-12-20T08:53:29.015Z,16
2016-12-20T08:53:59.623Z,12
2016-12-20T08:54:30.128Z,12
2016-12-20T08:55:00.674Z,16
2016-12-20T08:55:31.270Z,12
2016-12-20T08:56:01.811Z,16
2016-12-20T08:56:32.316Z,16
2016-12-20T08:57:02.854Z,16
2016-12-20T08:57:33.437Z,16
2016-12-20T08:58:03.930Z,16
2016-12-20T08:58:34.481Z,16
2016-12-20T08:59:05.106Z,12
2016-12-20T08:59:35.642Z,12
2016-12-20T09:00:06.253Z,12
2016-12-20T09:00:36.821Z,16
2016-12-20T09:01:07.430Z,12
2016-12-20T09:01:37.936Z,16
2016-12-20T09:02:08.438Z,12
2016-12-20T09:03:45.957Z,16
2016-12-20T09:04:16.475Z,16
2016-12-20T09:04:46.957Z,16
2016-12-20T09:05:17.561Z,12
2016-12-20T09:05:48.057Z,16
2016-12-20T09:06:18.696Z,16
2016-12-20T09:06:49.295Z,12
2016-12-20T09:07:19.804Z,12
2016-12-20T09:07:50.317Z,16
2016-12-20T09:08:20.830Z,16
2016-12-20T09:08:51.354Z,16
2016-12-20T09:09:21.865Z,12
2016-12-20T09:09:52.399Z,16
2016-12-20T09:10:22.926Z,16
2016-12-20T09:10:53.518Z,16
2016-12-20T09:11:24.033Z,16
2016-12-20T09:11:54.515Z,16
2016-12-20T09:12:25.195Z,12
2016-12-20T09:12:55.719Z,16
2016-12-20T09:13:26.238Z,16
2016-12-20T09:13:56.822Z,16
2016-12-20T09:14:27.317Z,16
2016-12-20T09:14:57.834Z,12
2016-12-20T09:15:28.346Z,12
2016-12-20T09:15:58.843Z,16
2016-12-20T09:16:29.485Z,12
2016-12-20T09:17:36.513Z,16
2016-12-20T09:18:07.038Z,16
2016-12-20T09:18:37.522Z,16
2016-12-20T09:19:08.026Z,16
2016-12-20T09:19:38.556Z,16
2016-12-20T09:20:09.089Z,12
2016-12-20T09:20:39.703Z,12
2016-12-20T09:21:10.217Z,16
2016-12-20T09:21:40.844Z,16
2016-12-20T09:22:11.356Z,16
2016-12-20T09:22:41.957Z,16
2016-12-20T09:23:12.473Z,16
2016-12-20T09:23:42.990Z,16
2016-12-20T09:24:13.486Z,12
2016-12-20T09:24:43.989Z,16
2016-12-20T09:25:14.499Z,12
2016-12-20T09:25:45.040Z,16
2016-12-20T09:26:15.626Z,16
2016-12-20T09:26:46.130Z,16
2016-12-20T09:27:16.647Z,12
2016-12-20T09:28:23.728Z,12
2016-12-20T09:28:54.372Z,16
2016-12-20T09:29:24.934Z,16
2016-12-20T09:29:55.454Z,12
2016-12-20T09:30:26.016Z,16
2016-12-20T09:31:33.137Z,16
2016-12-20T09:32:03.798Z,16
2016-12-20T09:32:34.309Z,16
2016-12-20T09:33:04.794Z,16
2016-12-20T09:33:35.296Z,12
2016-12-20T09:34:05.823Z,16
2016-12-20T09:34:36.333Z,16
2016-12-20T09:35:06.841Z,16
2016-12-20T09:35:37.443Z,16
2016-12-20T09:36:07.958Z,16
2016-12-20T09:36:38.477Z,12
2016-12-20T09:37:09.098Z,16
2016-12-20T09:37:39.602Z,16
2016-12-20T09:38:10.166Z,16
2016-12-20T09:38:40.713Z,12
2016-12-20T09:39:11.226Z,12
2016-12-20T09:39:41.764Z,16
2016-12-20T09:40:12.287Z,16
2016-12-20T09:40:42.849Z,16
2016-12-20T09:41:13.445Z,16
2016-12-20T09:41:44.045Z,12
2016-12-20T09:42:14.571Z,12
2016-12-20T09:42:45.111Z,12
2016-12-20T09:43:15.641Z,12
2016-12-20T09:43:46.139Z,12
2016-12-20T09:44:16.694Z,16
2016-12-20T09:44:47.193Z,16
2016-12-20T09:45:17.697Z,12
2016-12-20T09:45:48.194Z,16
2016-12-20T09:46:18.716Z,12
2016-12-20T09:46:49.268Z,16
2016-12-20T09:47:19.764Z,12
2016-12-20T09:47:50.260Z,16
2016-12-20T09:48:20.851Z,16
2016-12-20T09:48:51.434Z,16
2016-12-20T09:49:21.940Z,16
2016-12-20T09:49:52.446Z,16
2016-12-20T09:50:22.965Z,12
2016-12-20T09:50:53.459Z,16
2016-12-20T09:51:23.971Z,16
2016-12-20T09:51:54.457Z,12
2016-12-20T09:52:25.035Z,16
2016-12-20T09:52:55.627Z,16
2016-12-20T09:53:26.124Z,16
2016-12-20T09:53:56.654Z,16
2016-12-20T09:54:27.163Z,16
2016-12-20T09:54:57.678Z,12
2016-12-20T09:55:28.176Z,16
2016-12-20T09:55:58.698Z,16
2016-12-20T09:56:29.227Z,12
2016-12-20T09:56:59.723Z,12
2016-12-20T09:57:30.240Z,12
2016-12-20T09:58:00.716Z,16
2016-12-20T09:58:31.230Z,16
2016-12-20T09:59:01.733Z,16
2016-12-20T09:59:32.247Z,16
2016-12-20T10:00:02.777Z,16
2016-12-20T10:00:33.297Z,16
2016-12-20T10:01:03.838Z,12
2016-12-20T10:01:34.340Z,12
2016-12-20T10:02:04.849Z,16
2016-12-20T10:02:35.351Z,16
2016-12-20T10:03:05.852Z,12
2016-12-20T10:03:36.365Z,16
2016-12-20T10:04:06.884Z,12
2016-12-20T10:04:37.390Z,12
2016-12-20T10:05:07.897Z,12
2016-12-20T10:05:38.526Z,12
2016-12-20T10:06:09.163Z,16
2016-12-20T10:06:39.667Z,16
2016-12-20T10:07:10.166Z,16
2016-12-20T10:07:40.682Z,16
2016-12-20T10:08:11.200Z,12
2016-12-20T10:08:41.723Z,16
2016-12-20T10:09:12.225Z,16
2016-12-20T10:09:42.802Z,16
2016-12-20T10:10:13.396Z,20
2016-12-20T10:10:43.873Z,16
2016-12-20T10:11:14.385Z,20
2016-12-20T10:11:44.900Z,20
2016-12-20T10:12:15.419Z,20
2016-12-20T10:12:45.937Z,16
2016-12-20T10:13:16.435Z,20
2016-12-20T10:13:47.004Z,16
2016-12-20T10:14:17.534Z,20
2016-12-20T10:14:48.063Z,16
2016-12-20T10:15:18.541Z,20
2016-12-20T10:15:49.054Z,20
2016-12-20T10:16:19.557Z,20
2016-12-20T10:16:50.077Z,20
2016-12-20T10:17:20.569Z,20
2016-12-20T10:17:51.165Z,20
2016-12-20T10:18:21.657Z,20
2016-12-20T10:18:52.150Z,20
2016-12-20T10:19:22.651Z,20
2016-12-20T10:19:53.179Z,20
2016-12-20T10:20:23.704Z,20
2016-12-20T10:20:54.326Z,24
2016-12-20T10:21:24.958Z,24
2016-12-20T10:21:55.439Z,24
2016-12-20T10:22:25.926Z,20
2016-12-20T10:22:56.443Z,24
2016-12-20T10:23:27.002Z,20
2016-12-20T10:23:57.528Z,20
2016-12-20T10:24:28.147Z,20
2016-12-20T10:24:58.700Z,24
2016-12-20T10:25:29.259Z,24
2016-12-20T10:25:59.803Z,20
2016-12-20T10:26:30.339Z,24
2016-12-20T10:27:00.849Z,28
2016-12-20T10:27:31.349Z,28
2016-12-20T10:28:01.852Z,28
2016-12-20T10:28:32.364Z,24
2016-12-20T10:29:02.876Z,24
2016-12-20T10:29:33.390Z,24
2016-12-20T10:30:03.869Z,24
2016-12-20T10:30:34.371Z,24
2016-12-20T10:31:04.865Z,20
2016-12-20T10:31:35.519Z,20
2016-12-20T10:32:06.048Z,20
2016-12-20T10:32:36.582Z,20
2016-12-20T10:33:07.115Z,20
2016-12-20T10:33:37.617Z,24
2016-12-20T10:34:08.133Z,20
2016-12-20T10:34:38.653Z,24
2016-12-20T10:35:09.177Z,24
2016-12-20T10:35:39.677Z,20
2016-12-20T10:36:10.205Z,16
2016-12-20T10:36:40.719Z,16
2016-12-20T10:37:11.220Z,20
2016-12-20T10:37:41.735Z,16
2016-12-20T10:38:12.288Z,20
2016-12-20T10:38:42.803Z,20
2016-12-20T10:39:13.316Z,20
2016-12-20T10:39:43.857Z,20
2016-12-20T10:40:14.373Z,20
2016-12-20T10:40:44.981Z,20
2016-12-20T10:41:15.524Z,20
2016-12-20T10:41:46.044Z,20
2016-12-20T10:42:16.555Z,20
2016-12-20T10:42:47.069Z,20
2016-12-20T10:43:17.590Z,24
2016-12-20T10:43:48.092Z,24
2016-12-20T10:44:18.583Z,20
2016-12-20T10:44:49.111Z,20
2016-12-20T10:45:19.622Z,24
2016-12-20T10:45:50.865Z,20
2016-12-20T10:46:21.380Z,20
2016-12-20T10:46:52.046Z,16
2016-12-20T10:47:22.582Z,20
2016-12-20T10:47:53.064Z,20
2016-12-20T10:48:23.577Z,20
2016-12-20T10:48:54.078Z,20
2016-12-20T10:49:24.600Z,20
2016-12-20T10:49:55.113Z,16
2016-12-20T10:50:25.829Z,20
2016-12-20T10:50:56.644Z,20
2016-12-20T10:51:27.151Z,20
2016-12-20T10:51:57.658Z,24
2016-12-20T10:52:28.157Z,24
2016-12-20T10:52:58.689Z,24
2016-12-20T10:53:29.275Z,24
2016-12-20T10:53:59.759Z,20
2016-12-20T10:54:30.450Z,24
2016-12-20T10:55:00.998Z,20
2016-12-20T10:55:31.552Z,24
2016-12-20T10:56:02.164Z,28
2016-12-20T10:56:32.660Z,24
2016-12-20T10:57:03.210Z,24
2016-12-20T10:57:33.849Z,24
2016-12-20T10:58:04.382Z,20
2016-12-20T10:58:34.904Z,20
2016-12-20T10:59:05.488Z,20
2016-12-20T10:59:36.001Z,24
2016-12-20T11:00:06.528Z,24
2016-12-20T11:00:37.061Z,24
2016-12-20T11:01:07.567Z,24
2016-12-20T11:01:38.057Z,24
2016-12-20T11:02:08.606Z,20
2016-12-20T11:02:39.211Z,24
2016-12-20T11:03:09.738Z,24
2016-12-20T11:03:40.240Z,24
2016-12-20T11:04:10.749Z,24
2016-12-20T11:04:41.253Z,24
2016-12-20T11:05:11.765Z,24
2016-12-20T11:05:42.279Z,24
2016-12-20T11:06:12.818Z,24
2016-12-20T11:06:43.323Z,24
2016-12-20T11:07:13.911Z,24
2016-12-20T11:07:44.422Z,24
2016-12-20T11:08:14.915Z,24
2016-12-20T11:08:45.441Z,28
2016-12-20T11:09:15.939Z,24
2016-12-20T11:09:46.443Z,24
2016-12-20T11:10:17.144Z,20
2016-12-20T11:10:47.651Z,20
2016-12-20T11:11:18.155Z,20
2016-12-20T11:11:48.659Z,20
2016-12-20T11:12:19.179Z,20
2016-12-20T11:12:49.738Z,24
2016-12-20T11:13:20.251Z,24
2016-12-20T11:13:50.808Z,24
2016-12-20T11:14:21.523Z,24
2016-12-20T11:14:52.023Z,24
2016-12-20T11:15:22.624Z,24
2016-12-20T11:15:53.157Z,24
2016-12-20T11:16:23.704Z,24
2016-12-20T11:16:54.205Z,28
2016-12-20T11:17:24.710Z,24
2016-12-20T11:17:55.230Z,24
2016-12-20T11:18:25.735Z,24
2016-12-20T11:18:56.335Z,24
2016-12-20T11:19:26.860Z,24
2016-12-20T11:19:57.398Z,28
2016-12-20T11:20:28.050Z,28
2016-12-20T11:20:58.572Z,24
2016-12-20T11:21:29.081Z,24
2016-12-20T11:21:59.664Z,28
2016-12-20T11:22:30.203Z,28
2016-12-20T11:23:00.722Z,32
2016-12-20T11:23:31.228Z,28
2016-12-20T11:24:01.789Z,28
2016-12-20T11:24:32.287Z,24
2016-12-20T11:25:02.920Z,24
2016-12-20T11:25:33.427Z,28
2016-12-20T11:26:03.936Z,28
2016-12-20T11:26:34.548Z,24
2016-12-20T11:27:05.053Z,24
2016-12-20T11:27:35.582Z,24
2016-12-20T11:28:06.111Z,28
2016-12-20T11:28:36.619Z,28
2016-12-20T11:29:07.185Z,24
2016-12-20T11:29:37.669Z,28
2016-12-20T11:30:08.307Z,24
2016-12-20T11:30:38.822Z,20
2016-12-20T11:31:09.378Z,24
2016-12-20T11:31:39.857Z,20
2016-12-20T11:32:10.373Z,24
2016-12-20T11:32:41.027Z,24
2016-12-20T11:33:11.521Z,28
2016-12-20T11:33:42.035Z,28
2016-12-20T11:34:12.546Z,28
2016-12-20T11:34:43.067Z,24
2016-12-20T11:35:13.601Z,24
2016-12-20T11:35:44.110Z,24
2016-12-20T11:36:14.625Z,20
2016-12-20T11:36:45.129Z,24
2016-12-20T11:37:15.660Z,20
2016-12-20T11:37:46.151Z,16
2016-12-20T11:38:16.660Z,20
2016-12-20T11:38:47.247Z,16
2016-12-20T11:39:17.765Z,20
2016-12-20T11:39:48.270Z,20
2016-12-20T11:40:18.780Z,20
2016-12-20T11:40:49.305Z,20
2016-12-20T11:41:19.822Z,20
2016-12-20T11:41:50.397Z,20
2016-12-20T11:42:21.007Z,20
2016-12-20T11:42:51.583Z,20
2016-12-20T11:43:22.152Z,20
2016-12-20T11:43:52.687Z,16
2016-12-20T11:44:23.257Z,16
2016-12-20T11:44:53.965Z,20
2016-12-20T11:45:24.477Z,20
2016-12-20T11:45:54.974Z,16
2016-12-20T11:46:25.495Z,20
2016-12-20T11:46:56.000Z,20
2016-12-20T11:47:26.498Z,20
2016-12-20T11:47:57.027Z,20
2016-12-20T11:48:27.563Z,20
2016-12-20T11:48:58.090Z,20
2016-12-20T11:49:28.621Z,16
2016-12-20T11:49:59.146Z,16
2016-12-20T11:50:29.632Z,16
2016-12-20T11:51:00.149Z,16
2016-12-20T11:51:30.660Z,16
2016-12-20T11:52:01.257Z,16
2016-12-20T11:52:31.772Z,20
2016-12-20T11:53:02.274Z,16
2016-12-20T11:53:32.790Z,20
2016-12-20T11:54:03.311Z,20
2016-12-20T11:54:33.836Z,16
2016-12-20T11:55:04.353Z,20
2016-12-20T11:55:34.923Z,20
2016-12-20T11:56:05.420Z,16
2016-12-20T11:56:35.934Z,20
2016-12-20T11:57:06.453Z,20
2016-12-20T11:57:36.955Z,16
2016-12-20T11:58:07.450Z,20
2016-12-20T11:58:38.045Z,20
2016-12-20T11:59:08.538Z,20
2016-12-20T11:59:39.056Z,20
2016-12-20T12:00:09.624Z,16
2016-12-20T12:00:40.144Z,20
2016-12-20T12:01:10.648Z,16
2016-12-20T12:01:41.167Z,16
2016-12-20T12:02:11.685Z,20
2016-12-20T12:02:42.211Z,16
2016-12-20T12:03:12.797Z,20
2016-12-20T12:03:43.327Z,16
2016-12-20T12:04:13.842Z,16
2016-12-20T12:04:44.359Z,16
2016-12-20T12:05:14.857Z,20
2016-12-20T12:05:45.377Z,16
2016-12-20T12:06:15.885Z,16
2016-12-20T12:06:46.458Z,20
2016-12-20T12:07:17.132Z,16
2016-12-20T12:07:47.722Z,16
2016-12-20T12:08:18.318Z,20
2016-12-20T12:09:55.885Z,20
2016-12-20T12:10:26.407Z,20
2016-12-20T12:10:56.920Z,20
2016-12-20T12:11:27.451Z,20
2016-12-20T12:11:57.970Z,20
2016-12-20T12:12:28.479Z,20
2016-12-20T12:12:59.001Z,16
2016-12-20T12:13:29.481Z,16
2016-12-20T12:13:59.977Z,20
2016-12-20T12:14:30.473Z,20
2016-12-20T12:15:00.971Z,20
2016-12-20T12:15:31.473Z,20
2016-12-20T12:16:01.989Z,20
2016-12-20T12:16:32.633Z,20
2016-12-20T12:17:03.152Z,20
2016-12-20T12:17:33.650Z,24
2016-12-20T12:18:04.233Z,24
2016-12-20T12:18:34.739Z,20
2016-12-20T12:19:05.245Z,20
2016-12-20T12:19:35.800Z,16
2016-12-20T12:20:06.412Z,16
2016-12-20T12:20:36.912Z,20
2016-12-20T12:21:07.442Z,16
2016-12-20T12:21:37.951Z,20
2016-12-20T12:22:08.487Z,16
2016-12-20T12:22:39.175Z,16
2016-12-20T12:23:09.827Z,20
2016-12-20T12:23:40.364Z,16
2016-12-20T12:24:10.925Z,20
2016-12-20T12:24:41.629Z,20
2016-12-20T12:28:00.921Z,20
2016-12-20T12:28:31.432Z,20